Time;durP1;ratioP1;P1;durP2;ratioP2;P2;SDS_P1;SDS_P2;PMS_P1;PMS_P2;Temp;Humidity;BMP_temperature;BMP_pressure;BME280_temperature;BME280_humidity;BME280_pressure;Samples;Min_cycle;Max_cycle;Signal;HPM_P1;HPM_P2
2023/06/14 00:00:17;;;;;;;4.82;2.72;;;18.90;61.60;;;;;;4995071;28;20061;-86
2023/06/14 00:02:43;;;;;;;7.20;3.10;;;18.90;61.50;;;;;;4993675;28;20122;-82
2023/06/14 00:05:09;;;;;;;5.05;2.95;;;18.90;62.00;;;;;;4994528;28;20101;-85
2023/06/14 00:07:43;;;;;;;4.57;2.88;;;18.90;61.70;;;;;;4994288;28;20132;-86
2023/06/14 00:10:10;;;;;;;3.95;2.90;;;19.00;62.10;;;;;;4993610;28;20121;-86
2023/06/14 00:12:36;;;;;;;6.95;3.15;;;18.90;61.80;;;;;;4993753;28;20459;-86
2023/06/14 00:15:02;;;;;;;4.68;2.80;;;18.90;61.80;;;;;;4994320;28;20026;-87
2023/06/14 00:17:31;;;;;;;4.65;3.25;;;18.70;62.60;;;;;;4993545;28;20427;-88
2023/06/14 00:19:57;;;;;;;4.03;3.13;;;18.60;63.20;;;;;;4993115;28;20057;-87
2023/06/14 00:22:28;;;;;;;6.70;3.20;;;18.50;64.40;;;;;;4994880;28;20027;-87
2023/06/14 00:24:54;;;;;;;4.77;2.97;;;18.40;64.20;;;;;;4993604;28;20030;-86
2023/06/14 00:27:19;;;;;;;9.15;3.20;;;18.30;64.00;;;;;;4994004;28;20264;-87
2023/06/14 00:29:45;;;;;;;10.75;3.40;;;18.30;64.00;;;;;;4994709;28;20184;-81
2023/06/14 00:32:10;;;;;;;5.13;3.30;;;18.30;64.30;;;;;;4993312;28;20034;-87
2023/06/14 00:34:36;;;;;;;6.30;3.47;;;18.30;64.30;;;;;;4994847;28;20023;-87
2023/06/14 00:37:02;;;;;;;5.65;3.42;;;18.40;64.50;;;;;;4992934;28;20030;-87
2023/06/14 00:39:27;;;;;;;6.10;3.45;;;18.30;65.10;;;;;;4993560;28;20034;-87
2023/06/14 00:41:53;;;;;;;6.38;3.50;;;18.30;65.30;;;;;;4994158;28;20037;-87
2023/06/14 00:44:18;;;;;;;8.15;3.63;;;18.10;65.70;;;;;;4993925;28;20038;-87
2023/06/14 00:46:47;;;;;;;4.35;2.90;;;18.10;65.50;;;;;;4993991;28;20033;-87
2023/06/14 00:49:19;;;;;;;6.50;3.45;;;18.10;65.70;;;;;;4994904;28;20042;-86
2023/06/14 00:51:45;;;;;;;5.43;3.25;;;18.10;65.60;;;;;;4993802;28;20034;-87
2023/06/14 00:54:11;;;;;;;8.38;3.70;;;18.10;65.80;;;;;;4992840;28;20026;-86
2023/06/14 00:56:37;;;;;;;7.75;3.47;;;18.00;66.00;;;;;;4994327;28;20352;-86
2023/06/14 00:59:03;;;;;;;4.63;3.30;;;18.00;66.40;;;;;;4993765;28;20029;-85
2023/06/14 01:01:32;;;;;;;5.30;3.30;;;17.90;67.00;;;;;;4993297;28;20041;-85
2023/06/14 01:03:58;;;;;;;5.65;3.05;;;17.90;67.40;;;;;;4992868;28;20029;-85
2023/06/14 01:06:41;;;;;;;6.75;3.50;;;17.90;67.10;;;;;;4993010;28;20054;-85
2023/06/14 01:09:16;;;;;;;3.88;3.08;;;17.90;67.20;;;;;;4992329;28;20046;-85
2023/06/14 01:12:01;;;;;;;4.70;3.17;;;17.80;67.00;;;;;;4994332;28;20030;-85
2023/06/14 01:14:28;;;;;;;6.32;3.25;;;17.80;67.30;;;;;;4996001;28;20038;-85
2023/06/14 01:16:55;;;;;;;5.82;2.90;;;17.80;67.60;;;;;;4997308;28;20530;-85
2023/06/14 01:19:22;;;;;;;4.55;3.15;;;17.80;67.30;;;;;;4980843;28;20031;-85
2023/06/14 01:21:50;;;;;;;5.03;3.30;;;17.80;67.40;;;;;;4980431;28;20041;-81
2023/06/14 01:24:19;;;;;;;7.45;2.75;;;17.80;68.10;;;;;;4980733;28;20041;-85
2023/06/14 01:26:46;;;;;;;8.40;3.92;;;17.70;67.60;;;;;;4997912;28;20037;-85
2023/06/14 01:29:17;;;;;;;5.72;3.50;;;17.70;67.60;;;;;;4980613;28;20030;-86
2023/06/14 01:31:43;;;;;;;5.70;3.00;;;17.70;67.50;;;;;;4980618;28;20467;-85
2023/06/14 01:34:09;;;;;;;6.65;2.90;;;17.70;66.80;;;;;;4980251;28;20193;-85
2023/06/14 01:36:39;;;;;;;4.78;3.00;;;17.60;66.30;;;;;;4997839;28;20463;-85
2023/06/14 01:39:06;;;;;;;4.75;2.70;;;17.70;66.70;;;;;;4980175;28;20034;-86
2023/06/14 01:41:32;;;;;;;3.88;2.58;;;17.80;66.40;;;;;;4997772;28;20056;-85
2023/06/14 01:43:59;;;;;;;5.50;2.60;;;17.80;65.70;;;;;;4997256;28;20045;-85
2023/06/14 01:46:25;;;;;;;5.90;2.75;;;17.80;65.50;;;;;;4980179;28;20030;-85
2023/06/14 01:48:51;;;;;;;4.30;2.53;;;17.90;65.20;;;;;;4980346;28;20125;-81
2023/06/14 01:51:17;;;;;;;6.20;2.92;;;17.90;65.00;;;;;;4997515;28;20060;-85
2023/06/14 01:53:42;;;;;;;3.83;2.70;;;17.90;64.90;;;;;;4997682;28;20046;-85
2023/06/14 01:56:08;;;;;;;4.88;2.67;;;17.90;64.60;;;;;;4979644;28;20149;-85
2023/06/14 01:58:35;;;;;;;3.47;2.42;;;17.90;64.80;;;;;;4997443;28;20026;-85
2023/06/14 02:01:00;;;;;;;4.55;2.55;;;17.90;64.50;;;;;;4979440;28;20034;-85
2023/06/14 02:03:26;;;;;;;5.85;2.50;;;17.90;64.60;;;;;;4997195;28;20026;-84
2023/06/14 02:05:52;;;;;;;5.53;2.63;;;17.90;64.50;;;;;;4979742;28;20026;-80
2023/06/14 02:08:18;;;;;;;4.68;2.60;;;17.90;64.50;;;;;;4997180;28;20023;-85
2023/06/14 02:10:43;;;;;;;5.25;2.83;;;17.90;64.60;;;;;;4979755;28;20046;-84
2023/06/14 02:13:09;;;;;;;4.82;2.47;;;17.90;64.80;;;;;;4994369;28;20479;-84
2023/06/14 02:15:35;;;;;;;4.68;3.03;;;17.80;64.90;;;;;;4996893;28;20024;-85
2023/06/14 02:18:04;;;;;;;7.00;3.17;;;17.90;64.40;;;;;;4996427;28;20027;-84
2023/06/14 02:20:30;;;;;;;5.90;3.10;;;17.90;64.10;;;;;;4996712;28;20041;-84
2023/06/14 02:22:56;;;;;;;4.80;2.75;;;18.00;64.00;;;;;;4995310;28;20134;-84
2023/06/14 02:25:21;;;;;;;6.68;3.08;;;18.00;64.10;;;;;;4995740;28;20030;-85
2023/06/14 02:27:47;;;;;;;5.07;2.90;;;18.00;64.40;;;;;;4995725;28;20034;-84
2023/06/14 02:30:13;;;;;;;4.60;3.10;;;18.10;65.50;;;;;;4996757;28;20254;-84
2023/06/14 02:32:40;;;;;;;4.07;2.90;;;18.00;64.90;;;;;;4998869;28;20022;-82
2023/06/14 02:35:06;;;;;;;5.50;2.97;;;18.00;65.20;;;;;;4999172;28;20041;-84
2023/06/14 02:37:32;;;;;;;4.15;2.85;;;18.00;65.70;;;;;;4998891;28;20030;-84
2023/06/14 02:39:59;;;;;;;4.63;3.30;;;18.00;66.60;;;;;;4998917;28;20033;-84
2023/06/14 02:42:25;;;;;;;3.80;2.92;;;18.00;67.20;;;;;;4999949;28;20027;-84
2023/06/14 02:44:51;;;;;;;5.50;2.90;;;18.00;67.40;;;;;;5000201;28;20030;-84
2023/06/14 02:47:18;;;;;;;5.03;2.58;;;18.00;68.00;;;;;;4998744;28;20045;-84
2023/06/14 02:49:46;;;;;;;4.82;3.00;;;18.00;68.20;;;;;;4999111;28;20050;-84
2023/06/14 02:52:11;;;;;;;7.38;3.03;;;18.00;68.30;;;;;;4998022;28;20155;-84
2023/06/14 02:54:37;;;;;;;4.03;2.90;;;18.00;67.90;;;;;;4999508;28;20030;-84
2023/06/14 02:57:03;;;;;;;4.68;3.00;;;18.00;67.60;;;;;;4997468;28;20033;-84
2023/06/14 02:59:28;;;;;;;5.68;2.95;;;18.00;67.50;;;;;;4998061;28;20463;-84
2023/06/14 03:01:54;;;;;;;3.92;2.95;;;17.90;68.00;;;;;;4997775;28;20110;-81
2023/06/14 03:04:20;;;;;;;3.95;2.85;;;17.90;68.00;;;;;;4998576;28;20118;-84
2023/06/14 03:06:50;;;;;;;6.53;3.20;;;17.90;67.90;;;;;;4999131;28;20041;-84
2023/06/14 03:09:16;;;;;;;6.97;3.30;;;17.80;68.00;;;;;;4998460;28;20137;-84
2023/06/14 03:11:41;;;;;;;3.78;3.10;;;17.80;68.20;;;;;;4998917;28;20042;-85
2023/06/14 03:14:08;;;;;;;4.88;3.20;;;17.80;68.20;;;;;;4998209;28;20023;-84
2023/06/14 03:16:33;;;;;;;6.18;3.03;;;17.80;68.30;;;;;;4997710;28;20030;-85
2023/06/14 03:18:59;;;;;;;4.15;3.20;;;17.70;68.80;;;;;;4997283;28;20064;-84
2023/06/14 03:21:25;;;;;;;4.18;3.00;;;17.70;69.10;;;;;;4997230;28;20394;-84
2023/06/14 03:23:52;;;;;;;4.35;3.05;;;17.70;69.30;;;;;;4998873;28;20024;-84
2023/06/14 03:26:18;;;;;;;3.35;2.75;;;17.70;69.30;;;;;;4997303;28;20030;-84
2023/06/14 03:28:48;;;;;;;4.40;2.88;;;17.60;68.80;;;;;;4996958;28;20033;-84
2023/06/14 03:31:13;;;;;;;5.32;3.15;;;17.70;68.90;;;;;;4997026;28;20034;-85
2023/06/14 03:33:40;;;;;;;4.05;3.10;;;17.60;69.10;;;;;;4997776;28;20523;-84
2023/06/14 03:36:06;;;;;;;8.65;3.40;;;17.60;68.60;;;;;;4996729;28;20038;-84
2023/06/14 03:38:32;;;;;;;6.00;3.13;;;17.60;68.90;;;;;;4999081;28;20057;-84
2023/06/14 03:40:58;;;;;;;4.80;3.08;;;17.60;69.10;;;;;;4996834;28;20030;-81
2023/06/14 03:43:23;;;;;;;6.35;3.33;;;17.60;69.10;;;;;;4996798;28;20080;-84
2023/06/14 03:45:49;;;;;;;5.82;3.35;;;17.50;68.50;;;;;;4998613;28;20376;-84
2023/06/14 03:48:14;;;;;;;4.80;3.53;;;17.50;68.80;;;;;;4997875;28;20033;-85
2023/06/14 03:50:42;;;;;;;4.30;3.25;;;17.50;69.10;;;;;;4998006;28;20481;-84
2023/06/14 03:53:08;;;;;;;4.22;3.17;;;17.40;68.90;;;;;;4996494;28;20026;-84
2023/06/14 03:55:34;;;;;;;5.22;3.45;;;17.40;68.50;;;;;;4997474;28;20033;-84
2023/06/14 03:58:00;;;;;;;7.10;3.40;;;17.40;68.60;;;;;;4997313;28;20018;-80
2023/06/14 04:00:26;;;;;;;6.95;3.10;;;17.30;68.90;;;;;;4996693;28;20041;-84
2023/06/14 04:02:52;;;;;;;5.65;3.03;;;17.30;69.40;;;;;;4997603;28;20349;-84
2023/06/14 04:05:19;;;;;;;6.03;3.58;;;17.30;68.70;;;;;;4994904;28;20018;-84
2023/06/14 04:07:45;;;;;;;5.47;3.30;;;17.30;69.20;;;;;;4996139;28;20375;-84
2023/06/14 04:10:14;;;;;;;5.22;3.33;;;17.30;69.60;;;;;;4993882;28;20050;-84
2023/06/14 04:12:39;;;;;;;5.50;3.80;;;17.30;69.70;;;;;;4993555;28;20033;-85
2023/06/14 04:15:06;;;;;;;6.50;3.70;;;17.30;69.30;;;;;;4994240;28;20030;-84
2023/06/14 04:17:35;;;;;;;4.78;3.28;;;17.30;69.60;;;;;;4995224;28;20546;-85
2023/06/14 04:20:04;;;;;;;6.72;3.28;;;17.20;70.40;;;;;;4994584;28;20031;-81
2023/06/14 04:22:30;;;;;;;6.88;4.40;;;17.30;70.70;;;;;;4994336;28;20029;-84
2023/06/14 04:24:56;;;;;;;5.15;3.30;;;17.20;70.60;;;;;;4993262;28;20498;-85
2023/06/14 04:27:25;;;;;;;6.03;3.63;;;17.20;71.10;;;;;;4992884;28;20278;-84
2023/06/14 04:29:59;;;;;;;4.85;3.67;;;17.20;71.20;;;;;;4993015;28;20037;-84
2023/06/14 04:32:26;;;;;;;8.07;4.00;;;17.30;71.30;;;;;;4997230;28;20372;-85
2023/06/14 04:34:56;;;;;;;6.15;3.92;;;17.20;71.70;;;;;;4997828;28;20026;-84
2023/06/14 04:37:22;;;;;;;5.65;3.67;;;17.20;72.10;;;;;;4995925;28;20030;-84
2023/06/14 04:39:51;;;;;;;8.18;3.63;;;17.20;72.60;;;;;;4996211;28;20118;-84
2023/06/14 04:42:20;;;;;;;7.30;4.45;;;17.20;72.50;;;;;;4996541;28;20026;-84
2023/06/14 04:44:47;;;;;;;8.13;4.10;;;17.20;71.80;;;;;;4997253;28;20026;-84
2023/06/14 04:47:14;;;;;;;7.68;4.32;;;17.30;72.10;;;;;;4997198;28;20022;-84
2023/06/14 04:49:40;;;;;;;5.63;4.25;;;17.30;71.60;;;;;;4999602;28;20026;-84
2023/06/14 04:52:06;;;;;;;7.32;4.07;;;17.40;72.30;;;;;;5000080;28;20043;-84
2023/06/14 04:54:33;;;;;;;6.95;3.95;;;17.30;72.90;;;;;;5000680;28;20030;-84
2023/06/14 04:56:59;;;;;;;6.10;3.70;;;17.30;72.80;;;;;;5000238;28;20028;-84
2023/06/14 04:59:25;;;;;;;11.95;4.25;;;17.30;71.80;;;;;;5001011;28;20109;-83
2023/06/14 05:01:51;;;;;;;9.05;3.80;;;17.40;71.50;;;;;;5000752;28;20056;-85
2023/06/14 05:04:17;;;;;;;6.53;3.55;;;17.50;71.60;;;;;;4999444;28;20046;-84
2023/06/14 05:06:44;;;;;;;7.18;3.92;;;17.60;71.30;;;;;;4999847;28;20039;-85
2023/06/14 05:09:11;;;;;;;6.50;4.15;;;17.60;71.00;;;;;;4998959;28;20109;-84
2023/06/14 05:11:36;;;;;;;8.60;4.00;;;17.60;70.60;;;;;;4999796;28;20065;-84
2023/06/14 05:14:02;;;;;;;6.68;4.15;;;17.60;70.50;;;;;;4998294;28;20026;-80
2023/06/14 05:16:29;;;;;;;6.28;3.80;;;17.60;71.00;;;;;;4997867;28;20037;-84
2023/06/14 05:18:55;;;;;;;8.75;3.97;;;17.70;70.90;;;;;;4998583;28;20027;-84
2023/06/14 05:21:20;;;;;;;6.07;3.50;;;17.70;71.20;;;;;;4998068;28;20033;-84
2023/06/14 05:23:46;;;;;;;5.35;3.75;;;17.70;71.20;;;;;;4995349;28;20041;-84
2023/06/14 05:26:12;;;;;;;9.13;4.22;;;17.80;71.40;;;;;;4996042;28;20029;-84
2023/06/14 05:28:37;;;;;;;6.22;3.78;;;17.80;71.80;;;;;;4996368;28;20022;-85
2023/06/14 05:31:03;;;;;;;9.82;4.00;;;17.80;71.20;;;;;;4995464;28;20522;-81
2023/06/14 05:33:29;;;;;;;4.88;3.70;;;17.80;71.00;;;;;;4996464;28;20105;-85
2023/06/14 05:35:55;;;;;;;7.70;3.75;;;17.90;70.90;;;;;;4997857;28;20061;-85
2023/06/14 05:38:20;;;;;;;5.88;4.10;;;17.90;70.80;;;;;;4994972;28;20054;-85
2023/06/14 05:40:46;;;;;;;5.30;3.83;;;17.90;70.90;;;;;;4997517;28;20074;-85
2023/06/14 05:43:12;;;;;;;6.85;4.40;;;17.90;70.90;;;;;;4996106;28;20387;-85
2023/06/14 05:45:37;;;;;;;5.20;3.50;;;18.00;70.80;;;;;;4996340;28;20101;-85
2023/06/14 05:48:03;;;;;;;5.88;3.90;;;18.00;70.60;;;;;;4995938;28;20058;-80
2023/06/14 05:50:29;;;;;;;7.63;4.03;;;18.10;70.60;;;;;;4996080;28;20097;-85
2023/06/14 05:52:55;;;;;;;5.82;4.03;;;18.20;70.80;;;;;;4995018;28;20376;-85
2023/06/14 05:55:20;;;;;;;9.32;4.40;;;18.20;70.90;;;;;;4994666;28;20538;-86
2023/06/14 05:57:47;;;;;;;4.78;3.65;;;18.30;70.00;;;;;;4994891;28;20033;-85
2023/06/14 06:00:17;;;;;;;4.85;3.80;;;18.30;69.70;;;;;;4995253;28;20027;-85
2023/06/14 06:02:43;;;;;;;8.45;3.83;;;18.30;69.00;;;;;;4995039;28;20419;-85
2023/06/14 06:05:10;;;;;;;7.57;3.90;;;18.30;69.00;;;;;;4994307;28;20080;-84
2023/06/14 06:07:37;;;;;;;9.90;4.35;;;18.40;69.50;;;;;;4999555;28;20026;-85
2023/06/14 06:10:03;;;;;;;7.10;4.40;;;18.40;69.60;;;;;;4956937;28;1126452;-85
2023/06/14 06:12:28;;;;;;;7.53;4.00;;;18.50;69.30;;;;;;4995417;28;20042;-85
2023/06/14 06:14:55;;;;;;;6.50;4.40;;;18.50;69.70;;;;;;4995950;28;20463;-85
2023/06/14 06:17:20;;;;;;;5.32;3.53;;;18.50;69.80;;;;;;4996122;28;20030;-85
2023/06/14 06:19:46;;;;;;;6.53;3.22;;;18.50;69.70;;;;;;4995288;28;20026;-85
2023/06/14 06:22:11;;;;;;;5.70;3.40;;;18.60;69.70;;;;;;4995261;28;20037;-85
2023/06/14 06:24:37;;;;;;;8.52;3.65;;;18.60;69.20;;;;;;4996760;28;20478;-85
2023/06/14 06:27:03;;;;;;;4.82;3.15;;;18.70;68.60;;;;;;4996920;28;20105;-84
2023/06/14 06:29:29;;;;;;;8.88;3.97;;;18.70;68.30;;;;;;4995973;28;20030;-85
2023/06/14 06:31:56;;;;;;;6.65;3.40;;;18.70;68.30;;;;;;4995519;28;20034;-85
2023/06/14 06:34:22;;;;;;;5.20;3.35;;;18.70;68.10;;;;;;4995237;28;20486;-85
2023/06/14 06:36:47;;;;;;;6.53;3.72;;;18.80;68.40;;;;;;4995735;28;20027;-86
2023/06/14 06:39:14;;;;;;;8.02;4.10;;;18.80;68.10;;;;;;4996263;28;20027;-85
2023/06/14 06:41:40;;;;;;;6.00;3.33;;;18.90;68.50;;;;;;4996989;28;20036;-86
2023/06/14 06:44:06;;;;;;;5.00;3.67;;;18.90;68.90;;;;;;4996509;28;20116;-80
2023/06/14 06:46:33;;;;;;;6.03;3.35;;;19.00;69.40;;;;;;4996570;28;20022;-85
2023/06/14 06:48:59;;;;;;;7.38;3.90;;;19.00;68.70;;;;;;4996401;28;20037;-85
2023/06/14 06:51:25;;;;;;;5.95;3.35;;;19.10;68.90;;;;;;4995283;28;20030;-86
2023/06/14 06:53:54;;;;;;;6.85;3.95;;;19.00;68.60;;;;;;4994977;28;20118;-85
2023/06/14 06:56:22;;;;;;;7.75;3.20;;;19.10;68.80;;;;;;4995953;28;20113;-85
2023/06/14 06:58:51;;;;;;;5.53;3.80;;;19.20;68.40;;;;;;4995586;28;20023;-85
2023/06/14 07:01:18;;;;;;;6.53;3.22;;;19.20;68.60;;;;;;4996248;28;20109;-85
2023/06/14 07:03:44;;;;;;;7.38;3.30;;;19.20;68.40;;;;;;4996512;28;20022;-85
2023/06/14 07:06:10;;;;;;;6.72;3.22;;;19.30;67.90;;;;;;4994734;28;20432;-84
2023/06/14 07:08:38;;;;;;;5.18;2.60;;;19.30;67.60;;;;;;4995178;28;20030;-84
2023/06/14 07:11:04;;;;;;;9.02;3.47;;;19.40;67.50;;;;;;4995343;28;20137;-85
2023/06/14 07:13:30;;;;;;;5.05;3.33;;;19.40;67.50;;;;;;4994552;28;20203;-85
2023/06/14 07:15:59;;;;;;;6.03;3.33;;;19.50;67.30;;;;;;4993593;28;20463;-84
2023/06/14 07:18:25;;;;;;;5.45;3.53;;;19.50;67.40;;;;;;4991179;28;20375;-86
2023/06/14 07:20:51;;;;;;;7.43;3.35;;;19.60;67.30;;;;;;4978290;28;20038;-84
2023/06/14 07:23:17;;;;;;;5.45;2.85;;;19.60;66.90;;;;;;4978143;28;20030;-85
2023/06/14 07:25:43;;;;;;;7.22;3.45;;;19.70;67.40;;;;;;4978650;28;20061;-85
2023/06/14 07:28:08;;;;;;;5.35;3.15;;;19.70;67.30;;;;;;4995026;28;20022;-80
2023/06/14 07:30:35;;;;;;;7.45;3.67;;;19.70;66.90;;;;;;4993915;28;20031;-84
2023/06/14 07:33:00;;;;;;;4.95;3.63;;;19.80;67.20;;;;;;4995222;28;20023;-84
2023/06/14 07:35:26;;;;;;;4.30;3.17;;;19.80;66.90;;;;;;4977746;28;20076;-85
2023/06/14 07:37:51;;;;;;;7.00;3.13;;;19.80;66.60;;;;;;4985289;28;20038;-85
2023/06/14 07:40:17;;;;;;;4.68;2.85;;;19.90;66.60;;;;;;4994675;28;20460;-85
2023/06/14 07:42:42;;;;;;;4.00;3.17;;;19.90;66.50;;;;;;4995374;28;20023;-84
2023/06/14 07:45:08;;;;;;;5.18;3.40;;;20.00;66.50;;;;;;4992368;28;20033;-84
2023/06/14 07:47:34;;;;;;;5.20;3.15;;;20.00;66.50;;;;;;4994233;28;20093;-83
2023/06/14 07:50:00;;;;;;;3.72;3.00;;;20.10;65.60;;;;;;4993963;28;20360;-85
2023/06/14 07:52:25;;;;;;;7.65;3.20;;;20.10;65.70;;;;;;4993819;28;20030;-85
2023/06/14 07:54:51;;;;;;;5.78;3.55;;;20.20;65.80;;;;;;4994696;28;20371;-84
2023/06/14 07:57:19;;;;;;;4.78;3.17;;;20.10;65.70;;;;;;4993115;28;20027;-84
2023/06/14 07:59:45;;;;;;;4.60;3.30;;;20.10;65.90;;;;;;4994834;28;20038;-85
2023/06/14 08:02:11;;;;;;;7.20;3.67;;;20.20;65.90;;;;;;4987750;28;20027;-81
2023/06/14 08:04:36;;;;;;;6.13;3.22;;;20.20;66.10;;;;;;4994894;28;20037;-84
2023/06/14 08:07:02;;;;;;;3.67;2.85;;;20.20;66.10;;;;;;4992207;28;20395;-85
2023/06/14 08:09:28;;;;;;;4.50;3.10;;;20.30;66.20;;;;;;4987838;28;20046;-85
2023/06/14 08:11:54;;;;;;;6.78;3.03;;;20.30;66.00;;;;;;4993704;28;20045;-85
2023/06/14 08:14:20;;;;;;;14.23;3.40;;;20.40;65.70;;;;;;4991689;28;20030;-84
2023/06/14 08:16:46;;;;;;;5.03;2.80;;;20.40;64.70;;;;;;4994263;28;20030;-84
2023/06/14 08:19:11;;;;;;;5.47;2.80;;;20.50;64.30;;;;;;4978921;28;20089;-83
2023/06/14 08:21:37;;;;;;;5.47;2.80;;;20.50;62.90;;;;;;4987647;28;20034;-84
2023/06/14 08:24:03;;;;;;;5.30;3.08;;;20.50;62.90;;;;;;4986250;28;20113;-85
2023/06/14 08:26:29;;;;;;;4.03;2.67;;;20.60;62.50;;;;;;4992747;28;20031;-84
2023/06/14 08:28:55;;;;;;;8.45;3.10;;;20.60;63.00;;;;;;4994046;28;20109;-84
2023/06/14 08:31:22;;;;;;;4.40;2.50;;;20.70;62.80;;;;;;4993699;28;20129;-84
2023/06/14 08:33:47;;;;;;;4.05;2.65;;;20.70;63.40;;;;;;4985969;28;20030;-85
2023/06/14 08:36:13;;;;;;;5.53;2.45;;;20.70;63.20;;;;;;4986888;28;20499;-84
2023/06/14 08:38:41;;;;;;;5.13;3.00;;;20.80;63.20;;;;;;4994216;28;20069;-84
2023/06/14 08:41:11;;;;;;;3.50;2.38;;;20.90;62.70;;;;;;4978754;28;20030;-84
2023/06/14 08:43:37;;;;;;;4.25;2.55;;;20.90;62.80;;;;;;4987360;28;20030;-83
2023/06/14 08:46:04;;;;;;;6.30;2.95;;;20.90;62.10;;;;;;4978573;28;20038;-85
2023/06/14 08:48:32;;;;;;;5.97;2.75;;;21.00;62.20;;;;;;4988469;28;20054;-85
2023/06/14 08:51:06;;;;;;;10.73;2.88;;;21.00;63.00;;;;;;4978313;28;20026;-85
2023/06/14 08:53:33;;;;;;;5.43;2.97;;;21.10;62.80;;;;;;4994120;28;20146;-85
2023/06/14 08:56:01;;;;;;;5.03;3.22;;;21.20;62.50;;;;;;4994469;28;20022;-85
2023/06/14 08:58:31;;;;;;;3.50;2.75;;;21.20;62.60;;;;;;4993509;28;20073;-84
2023/06/14 09:00:57;;;;;;;5.05;2.80;;;21.30;61.40;;;;;;4977012;28;20138;-84
2023/06/14 09:03:28;;;;;;;4.90;2.83;;;21.30;61.70;;;;;;4993757;28;20031;-84
2023/06/14 09:05:54;;;;;;;5.10;2.80;;;21.40;61.70;;;;;;4977317;28;20037;-85
2023/06/14 09:08:22;;;;;;;4.22;2.42;;;21.40;62.00;;;;;;4983101;28;20534;-84
2023/06/14 09:10:47;;;;;;;5.80;2.80;;;21.50;61.80;;;;;;4991341;28;20077;-85
2023/06/14 09:13:13;;;;;;;5.53;2.95;;;21.50;61.40;;;;;;4993415;28;20023;-82
2023/06/14 09:15:39;;;;;;;5.10;3.30;;;21.50;60.30;;;;;;4978393;28;20031;-84
2023/06/14 09:18:05;;;;;;;7.05;3.25;;;21.60;60.20;;;;;;4985589;28;20081;-84
2023/06/14 09:20:31;;;;;;;5.47;3.03;;;21.60;59.90;;;;;;4993020;28;20033;-84
2023/06/14 09:22:57;;;;;;;4.93;3.30;;;21.50;59.90;;;;;;4993579;28;20034;-85
2023/06/14 09:25:24;;;;;;;4.40;2.80;;;21.60;60.40;;;;;;4992789;28;20550;-84
2023/06/14 09:27:51;;;;;;;6.53;2.75;;;21.60;60.00;;;;;;4993059;28;20088;-85
2023/06/14 09:30:20;;;;;;;5.28;2.83;;;21.70;61.10;;;;;;4986398;28;20553;-84
2023/06/14 09:32:46;;;;;;;6.18;2.92;;;21.80;61.40;;;;;;4977495;28;20033;-84
2023/06/14 09:35:11;;;;;;;3.75;2.67;;;21.80;61.20;;;;;;4995409;28;20101;-84
2023/06/14 09:37:38;;;;;;;5.10;2.50;;;21.80;60.40;;;;;;4996245;28;20038;-84
2023/06/14 09:40:04;;;;;;;6.00;2.60;;;21.90;60.20;;;;;;4989205;28;20034;-84
2023/06/14 09:42:31;;;;;;;4.38;2.70;;;21.90;58.60;;;;;;4996789;28;20106;-85
2023/06/14 09:44:57;;;;;;;8.00;2.55;;;21.90;58.70;;;;;;4996014;28;20049;-84
2023/06/14 09:47:24;;;;;;;3.65;2.75;;;22.00;60.10;;;;;;4996469;28;20026;-84
2023/06/14 09:49:50;;;;;;;5.50;2.58;;;22.10;59.70;;;;;;4997108;28;20030;-84
2023/06/14 09:52:19;;;;;;;4.63;2.55;;;22.10;59.40;;;;;;4996695;28;20165;-84
2023/06/14 09:54:47;;;;;;;5.70;2.90;;;22.10;59.80;;;;;;4980143;28;20121;-85
2023/06/14 09:57:14;;;;;;;8.27;3.10;;;22.20;59.20;;;;;;4980380;28;20030;-85
2023/06/14 09:59:45;;;;;;;4.55;2.60;;;22.20;57.30;;;;;;4979688;28;20030;-84
2023/06/14 10:02:31;;;;;;;7.65;2.60;;;22.30;57.50;;;;;;4997535;28;20034;-85
2023/06/14 10:05:06;;;;;;;3.67;2.47;;;22.20;57.10;;;;;;4997420;28;20065;-85
2023/06/14 10:07:55;;;;;;;9.75;2.88;;;22.30;57.40;;;;;;4979408;28;20042;-84
2023/06/14 10:10:21;;;;;;;6.93;2.75;;;22.40;58.00;;;;;;4979283;28;20146;-84
2023/06/14 10:12:47;;;;;;;3.55;2.45;;;22.40;57.10;;;;;;4996982;28;20583;-85
2023/06/14 10:15:42;;;;;;;4.18;2.67;;;22.40;56.00;;;;;;4997117;28;20045;-85
2023/06/14 10:18:25;;;;;;;5.80;2.50;;;22.40;55.40;;;;;;4979325;28;20036;-85
2023/06/14 10:21:13;;;;;;;3.47;2.10;;;22.50;54.90;;;;;;4997085;28;20073;-85
2023/06/14 10:23:42;;;;;;;6.18;2.38;;;22.60;54.90;;;;;;4979430;28;20049;-85
2023/06/14 10:26:08;;;;;;;6.50;2.30;;;22.60;55.50;;;;;;4979801;28;20029;-85
2023/06/14 10:28:37;;;;;;;3.22;2.28;;;22.80;55.70;;;;;;4996315;28;20026;-85
2023/06/14 10:31:06;;;;;;;6.53;2.70;;;22.90;56.20;;;;;;4979622;28;20030;-85
2023/06/14 10:33:33;;;;;;;4.43;2.38;;;22.90;55.80;;;;;;4978838;28;20033;-85
2023/06/14 10:36:26;;;;;;;4.82;2.30;;;22.90;55.60;;;;;;4996600;28;20379;-84
2023/06/14 10:39:10;;;;;;;4.43;2.30;;;23.10;55.50;;;;;;4978905;28;20035;-85
2023/06/14 10:41:37;;;;;;;3.28;2.38;;;23.20;53.60;;;;;;4996090;28;20026;-85
2023/06/14 10:44:12;;;;;;;5.75;2.28;;;23.30;53.90;;;;;;4979450;28;20031;-85
2023/06/14 10:46:45;;;;;;;5.00;2.55;;;23.30;53.50;;;;;;4995179;28;20134;-85
2023/06/14 10:49:11;;;;;;;3.78;2.42;;;23.20;53.50;;;;;;4998228;28;20030;-85
2023/06/14 10:51:46;;;;;;;11.10;4.10;;;23.20;54.50;;;;;;4996399;28;20038;-85
2023/06/14 10:54:15;;;;;;;4.18;2.90;;;23.20;55.80;;;;;;4996271;28;20077;-83
2023/06/14 10:56:52;;;;;;;5.45;2.78;;;23.20;56.50;;;;;;4978392;28;20031;-85
2023/06/14 10:59:19;;;;;;;6.55;3.65;;;23.10;56.20;;;;;;4996189;28;20160;-85
2023/06/14 11:01:45;;;;;;;12.75;7.70;;;23.00;56.20;;;;;;4978892;28;20026;-85
2023/06/14 11:04:11;;;;;;;7.10;3.10;;;23.10;56.60;;;;;;4978937;28;20029;-85
2023/06/14 11:06:49;;;;;;;4.35;3.10;;;23.00;56.40;;;;;;4978276;28;20121;-85
2023/06/14 11:09:27;;;;;;;4.10;3.08;;;23.00;56.50;;;;;;4978766;28;20081;-85
2023/06/14 11:11:56;;;;;;;5.93;3.00;;;23.10;56.30;;;;;;4978445;28;20471;-85
2023/06/14 11:14:21;;;;;;;5.80;3.33;;;23.10;56.10;;;;;;4977944;28;20033;-84
2023/06/14 11:16:50;;;;;;;6.97;3.10;;;23.20;56.00;;;;;;4995837;28;20447;-84
2023/06/14 11:19:17;;;;;;;7.05;3.03;;;23.20;56.20;;;;;;4995650;28;20023;-84
2023/06/14 11:21:46;;;;;;;8.88;3.13;;;23.20;55.80;;;;;;4977934;28;20464;-84
2023/06/14 11:24:12;;;;;;;5.50;3.05;;;23.30;56.30;;;;;;4978729;28;20489;-85
2023/06/14 11:26:40;;;;;;;6.05;3.25;;;23.30;56.70;;;;;;4977914;28;20117;-84
2023/06/14 11:29:06;;;;;;;7.03;3.10;;;23.30;56.30;;;;;;4995568;28;20027;-84
2023/06/14 11:31:31;;;;;;;4.32;2.92;;;23.40;56.30;;;;;;4977550;28;20037;-84
2023/06/14 11:33:59;;;;;;;7.75;2.90;;;23.50;57.10;;;;;;4995289;28;20084;-85
2023/06/14 11:36:30;;;;;;;4.35;3.10;;;23.60;57.20;;;;;;4977619;28;20039;-84
2023/06/14 11:39:05;;;;;;;3.50;3.20;;;23.70;56.80;;;;;;4978280;28;20471;-84
2023/06/14 11:41:40;;;;;;;5.50;3.10;;;24.00;55.80;;;;;;4977529;28;20034;-85
2023/06/14 11:44:07;;;;;;;4.57;3.10;;;24.20;56.10;;;;;;4978183;28;20451;-84
2023/06/14 11:46:32;;;;;;;6.97;2.88;;;24.30;55.00;;;;;;4977498;28;20046;-84
2023/06/14 11:48:58;;;;;;;5.28;2.70;;;24.40;54.40;;;;;;4978107;28;20030;-83
2023/06/14 11:51:24;;;;;;;4.95;2.90;;;24.50;54.20;;;;;;4994598;28;20027;-83
2023/06/14 11:53:50;;;;;;;4.85;2.63;;;24.50;53.50;;;;;;4994934;28;20526;-83
2023/06/14 11:56:16;;;;;;;3.78;2.70;;;24.50;53.60;;;;;;4977824;28;20068;-83
2023/06/14 11:58:43;;;;;;;6.03;2.67;;;24.60;52.60;;;;;;4994046;28;20155;-83
2023/06/14 12:01:09;;;;;;;5.05;2.58;;;24.60;52.50;;;;;;4994989;28;20033;-83
2023/06/14 12:03:35;;;;;;;9.40;2.40;;;24.70;52.70;;;;;;4994719;28;20030;-82
2023/06/14 12:06:07;;;;;;;4.18;2.60;;;24.60;52.90;;;;;;4977659;28;20026;-83
2023/06/14 12:08:40;;;;;;;7.20;2.40;;;24.50;52.70;;;;;;4994533;28;20042;-83
2023/06/14 12:11:13;;;;;;;4.60;2.25;;;24.40;52.20;;;;;;4977189;28;20046;-82
2023/06/14 12:13:42;;;;;;;3.08;2.28;;;24.40;52.20;;;;;;4976810;28;20022;-83
2023/06/14 12:16:10;;;;;;;4.05;2.20;;;24.30;51.30;;;;;;4977753;28;20027;-83
2023/06/14 12:18:38;;;;;;;3.17;2.13;;;24.30;51.40;;;;;;4976628;28;20031;-83
2023/06/14 12:21:11;;;;;;;3.92;2.13;;;24.30;51.50;;;;;;4977408;28;20172;-84
2023/06/14 12:23:46;;;;;;;3.47;2.10;;;24.30;51.80;;;;;;4976979;28;20029;-83
2023/06/14 12:26:19;;;;;;;8.60;2.40;;;24.40;51.10;;;;;;4977475;28;20101;-83
2023/06/14 12:28:46;;;;;;;4.45;2.15;;;24.50;50.80;;;;;;4976914;28;20022;-83
2023/06/14 12:31:13;;;;;;;3.60;2.40;;;24.60;50.40;;;;;;4977181;28;20535;-83
2023/06/14 12:33:40;;;;;;;6.28;2.40;;;24.60;50.90;;;;;;4976805;28;20402;-83
2023/06/14 12:36:10;;;;;;;4.95;2.20;;;24.50;50.00;;;;;;4994468;28;20030;-83
2023/06/14 12:38:36;;;;;;;5.20;2.10;;;24.40;50.10;;;;;;4976577;28;20112;-84
2023/06/14 12:41:02;;;;;;;5.63;2.00;;;24.40;50.20;;;;;;4994314;28;20038;-83
2023/06/14 12:43:28;;;;;;;5.65;2.20;;;24.50;50.40;;;;;;4976804;28;20026;-83
2023/06/14 12:45:54;;;;;;;3.97;2.05;;;24.50;50.50;;;;;;4977348;28;20030;-83